Time;durP1;ratioP1;P1;durP2;ratioP2;P2;SDS_P1;SDS_P2;PMS_P1;PMS_P2;Temp;Humidity;BMP_temperature;BMP_pressure;BME280_temperature;BME280_humidity;BME280_pressure;Samples;Min_cycle;Max_cycle;Signal;HPM_P1;HPM_P2
2022/01/18 00:01:36;;;;;;;23.97;16.17;;;4.60;99.90;;;;;;5073573;28;21395;-64
2022/01/18 00:04:03;;;;;;;21.93;15.23;;;4.70;99.90;;;;;;5074062;28;20535;-65
2022/01/18 00:06:30;;;;;;;20.00;16.47;;;4.70;99.90;;;;;;5072667;28;20543;-63
2022/01/18 00:08:56;;;;;;;19.83;15.50;;;4.60;99.90;;;;;;5073446;28;20447;-64
2022/01/18 00:11:26;;;;;;;23.90;16.30;;;4.60;99.90;;;;;;5072844;28;20467;-64
2022/01/18 00:14:01;;;;;;;20.00;14.80;;;4.60;99.90;;;;;;5073151;28;20942;-62
2022/01/18 00:16:31;;;;;;;24.03;16.60;;;4.60;99.90;;;;;;5087672;28;20498;-63
2022/01/18 00:19:06;;;;;;;26.77;16.93;;;4.70;99.90;;;;;;5091586;28;20451;-64
2022/01/18 00:21:49;;;;;;;23.80;16.40;;;4.70;99.90;;;;;;5079464;28;20485;-64
2022/01/18 00:24:16;;;;;;;23.80;16.30;;;4.70;99.90;;;;;;5092468;28;20477;-64
2022/01/18 00:26:42;;;;;;;18.50;14.20;;;4.70;99.90;;;;;;5096268;28;20503;-62
2022/01/18 00:29:13;;;;;;;20.67;14.90;;;4.70;99.90;;;;;;5095816;28;20449;-64
2022/01/18 00:32:07;;;;;;;20.77;14.73;;;4.70;99.90;;;;;;5095773;28;20482;-65
2022/01/18 00:34:38;;;;;;;20.67;14.10;;;4.70;99.90;;;;;;5095768;28;20463;-62
2022/01/18 00:37:25;;;;;;;19.57;14.90;;;4.80;99.90;;;;;;5095547;28;20455;-62
2022/01/18 00:39:52;;;;;;;20.63;14.63;;;4.70;99.90;;;;;;5095204;28;20450;-65
2022/01/18 00:42:19;;;;;;;19.00;14.47;;;4.80;99.90;;;;;;5095831;28;20826;-64
2022/01/18 00:44:46;;;;;;;20.40;15.07;;;4.80;99.90;;;;;;5095562;28;20439;-65
2022/01/18 00:47:13;;;;;;;26.57;16.90;;;4.80;99.90;;;;;;5096317;28;20474;-64
2022/01/18 00:49:44;;;;;;;23.10;16.90;;;4.80;99.90;;;;;;5096319;28;20522;-65
2022/01/18 00:52:11;;;;;;;22.37;16.00;;;4.90;99.90;;;;;;5096192;28;20461;-65
2022/01/18 00:54:43;;;;;;;19.53;15.37;;;4.90;99.90;;;;;;5095620;28;20447;-64
2022/01/18 00:57:09;;;;;;;23.60;17.03;;;4.90;99.90;;;;;;5095605;28;20464;-66
2022/01/18 00:59:39;;;;;;;29.40;19.33;;;4.90;99.90;;;;;;5095450;28;20485;-64
2022/01/18 01:02:06;;;;;;;25.77;19.10;;;4.90;99.90;;;;;;5095263;28;20462;-65
2022/01/18 01:04:38;;;;;;;24.73;18.10;;;4.90;99.90;;;;;;5095703;28;21006;-64
2022/01/18 01:07:07;;;;;;;26.50;18.10;;;4.80;99.90;;;;;;5095897;28;20442;-64
2022/01/18 01:09:34;;;;;;;26.30;17.53;;;4.80;99.90;;;;;;5095611;28;20434;-64
2022/01/18 01:12:01;;;;;;;25.63;18.40;;;4.80;99.90;;;;;;5096307;28;20455;-65
2022/01/18 01:14:30;;;;;;;29.00;20.10;;;4.80;99.90;;;;;;5095542;28;20464;-64
2022/01/18 01:17:05;;;;;;;25.87;17.70;;;4.80;99.90;;;;;;5095580;28;20565;-66
2022/01/18 01:31:55;;;;;;;24.20;17.53;;;4.80;99.90;;;;;;5094991;28;20837;-65
2022/01/18 01:36:34;;;;;;;24.30;16.00;;;4.80;99.90;;;;;;5094813;28;20469;-65
2022/01/18 01:42:05;;;;;;;22.67;16.93;;;4.80;99.90;;;;;;5095501;28;20442;-64
2022/01/18 01:44:42;;;;;;;25.07;16.63;;;4.80;99.90;;;;;;5095099;28;20482;-65
2022/01/18 01:47:11;;;;;;;24.60;17.70;;;4.90;99.90;;;;;;5095555;28;20515;-64
2022/01/18 01:49:39;;;;;;;23.80;16.97;;;4.80;99.90;;;;;;5095213;28;20445;-64
2022/01/18 01:52:07;;;;;;;29.43;18.80;;;4.80;99.90;;;;;;5095710;28;20467;-64
2022/01/18 01:54:36;;;;;;;24.60;17.60;;;4.80;99.90;;;;;;5095510;28;20443;-65
2022/01/18 01:57:04;;;;;;;24.63;18.20;;;4.80;99.90;;;;;;5094717;28;20917;-65
2022/01/18 01:59:31;;;;;;;27.83;17.37;;;4.80;99.90;;;;;;5095650;28;20545;-64
2022/01/18 02:01:58;;;;;;;26.70;18.00;;;4.80;99.90;;;;;;5094921;28;20459;-62
2022/01/18 02:04:25;;;;;;;23.63;16.80;;;4.80;99.90;;;;;;5096491;28;20530;-65
2022/01/18 02:06:52;;;;;;;33.03;19.97;;;4.90;99.90;;;;;;5095964;28;20526;-63
2022/01/18 02:09:19;;;;;;;23.30;18.07;;;4.90;99.90;;;;;;5095242;28;20481;-63
2022/01/18 02:11:49;;;;;;;27.20;18.50;;;4.90;99.90;;;;;;5095572;28;21143;-65
2022/01/18 02:14:20;;;;;;;26.20;18.63;;;4.90;99.90;;;;;;5095232;28;20443;-63
2022/01/18 02:22:18;;;;;;;21.93;16.40;;;5.00;99.90;;;;;;5095757;28;20433;-66
2022/01/18 02:24:45;;;;;;;25.30;16.27;;;4.90;99.90;;;;;;5095035;28;20510;-63
2022/01/18 02:27:12;;;;;;;24.10;18.10;;;4.90;99.90;;;;;;5095057;28;20435;-64
2022/01/18 02:29:39;;;;;;;22.90;17.20;;;5.00;99.90;;;;;;5094657;28;20435;-66
2022/01/18 02:32:07;;;;;;;23.40;16.57;;;4.90;99.90;;;;;;5094904;28;21051;-64
2022/01/18 02:34:34;;;;;;;22.10;15.80;;;5.00;99.90;;;;;;5094667;28;20430;-64
2022/01/18 02:37:03;;;;;;;25.60;17.20;;;4.90;99.90;;;;;;5095297;28;20488;-63
2022/01/18 02:39:32;;;;;;;22.93;16.03;;;4.80;99.90;;;;;;5095329;28;20454;-64
2022/01/18 02:42:01;;;;;;;22.73;16.83;;;4.90;99.90;;;;;;5094932;28;20466;-64
2022/01/18 02:44:29;;;;;;;25.47;16.80;;;4.90;99.90;;;;;;5094700;28;20867;-65
2022/01/18 02:46:57;;;;;;;22.47;15.90;;;4.80;99.90;;;;;;5094794;28;20530;-66
2022/01/18 02:49:25;;;;;;;19.20;14.60;;;4.80;99.90;;;;;;5094151;28;20438;-64
2022/01/18 02:51:52;;;;;;;22.50;15.77;;;4.80;99.90;;;;;;5094038;28;20504;-65
2022/01/18 02:54:20;;;;;;;25.90;17.63;;;4.80;99.90;;;;;;5094044;28;20451;-65
2022/01/18 02:56:53;;;;;;;23.53;16.77;;;4.80;99.90;;;;;;5094569;28;20482;-65
2022/01/18 02:59:30;;;;;;;27.10;17.93;;;4.80;99.90;;;;;;5093936;28;20758;-64
2022/01/18 03:04:43;;;;;;;27.10;17.73;;;4.80;99.90;;;;;;5094929;28;20461;-65
2022/01/18 03:07:11;;;;;;;25.10;17.03;;;4.90;99.90;;;;;;5094861;28;20536;-64
2022/01/18 03:09:39;;;;;;;30.17;19.07;;;4.90;99.90;;;;;;5094186;28;20809;-64
2022/01/18 03:12:09;;;;;;;25.00;17.80;;;4.90;99.90;;;;;;5094374;28;20981;-64
2022/01/18 03:14:36;;;;;;;28.27;19.10;;;4.90;99.90;;;;;;5096419;28;20813;-64
2022/01/18 03:17:04;;;;;;;24.20;17.53;;;4.90;99.90;;;;;;5098431;28;20481;-65
2022/01/18 03:19:31;;;;;;;24.73;15.33;;;4.90;99.90;;;;;;5098028;28;20438;-64
2022/01/18 03:21:58;;;;;;;21.23;15.30;;;4.90;99.90;;;;;;5098519;28;20469;-64
2022/01/18 03:24:47;;;;;;;23.47;16.13;;;4.90;99.90;;;;;;5098295;28;20447;-64
2022/01/18 03:30:03;;;;;;;25.30;15.60;;;4.90;99.90;;;;;;5097760;28;20499;-65
2022/01/18 03:32:30;;;;;;;26.97;17.40;;;4.90;99.90;;;;;;5098289;28;20557;-65
2022/01/18 03:34:56;;;;;;;26.93;16.47;;;4.90;99.90;;;;;;5097833;28;20453;-65
2022/01/18 03:37:23;;;;;;;26.50;19.40;;;4.90;99.90;;;;;;5097562;28;20885;-65
2022/01/18 03:39:50;;;;;;;24.33;17.97;;;4.90;99.90;;;;;;5097366;28;20438;-64
2022/01/18 03:42:38;;;;;;;32.07;19.27;;;5.00;99.90;;;;;;5097442;28;20466;-64
2022/01/18 03:45:07;;;;;;;27.77;19.60;;;5.00;99.90;;;;;;5097848;28;20465;-64
2022/01/18 03:47:34;;;;;;;28.53;19.53;;;5.00;99.90;;;;;;5097549;28;20530;-64
2022/01/18 03:50:02;;;;;;;28.57;19.03;;;5.00;99.90;;;;;;5096835;28;20487;-65
2022/01/18 03:52:29;;;;;;;26.27;20.80;;;5.00;99.90;;;;;;5097553;28;20459;-65
2022/01/18 03:54:56;;;;;;;27.10;18.97;;;5.00;99.90;;;;;;5097453;28;20835;-64
2022/01/18 03:57:24;;;;;;;25.83;18.57;;;5.00;99.90;;;;;;5097399;28;20478;-64
2022/01/18 03:59:51;;;;;;;24.57;18.43;;;5.00;99.90;;;;;;5097488;28;20522;-64
2022/01/18 04:02:18;;;;;;;22.77;16.80;;;5.00;99.90;;;;;;5097229;28;20455;-65
2022/01/18 04:04:46;;;;;;;22.07;16.67;;;5.00;99.90;;;;;;5096735;28;20541;-64
2022/01/18 04:07:13;;;;;;;27.93;18.90;;;5.00;99.90;;;;;;5096732;28;20435;-65
2022/01/18 04:09:40;;;;;;;26.40;18.27;;;5.00;99.90;;;;;;5097044;28;20441;-65
2022/01/18 04:12:08;;;;;;;25.30;17.60;;;5.10;99.90;;;;;;5096843;28;20462;-65
2022/01/18 04:14:36;;;;;;;21.30;16.40;;;5.10;99.90;;;;;;5096874;28;20438;-65
2022/01/18 04:17:10;;;;;;;28.43;19.80;;;5.10;99.90;;;;;;5096964;28;20473;-65
2022/01/18 04:28:13;;;;;;;26.20;18.00;;;5.10;99.90;;;;;;5082284;28;20786;-64
2022/01/18 04:30:41;;;;;;;31.17;19.77;;;5.00;99.90;;;;;;5095023;28;20478;-64
2022/01/18 04:33:08;;;;;;;26.50;19.03;;;5.00;99.90;;;;;;5095560;28;20441;-64
2022/01/18 04:35:35;;;;;;;27.70;19.33;;;4.90;99.90;;;;;;5096123;28;20442;-65
2022/01/18 04:38:02;;;;;;;28.10;17.90;;;4.90;99.90;;;;;;5095197;28;20439;-65
2022/01/18 04:40:31;;;;;;;33.07;19.50;;;5.00;99.90;;;;;;5095163;28;20947;-62
2022/01/18 04:43:15;;;;;;;27.57;17.03;;;5.00;99.90;;;;;;5095415;28;21020;-64
2022/01/18 04:48:30;;;;;;;34.50;20.30;;;4.90;99.90;;;;;;5095658;28;20454;-64
2022/01/18 04:50:59;;;;;;;30.00;19.53;;;4.80;99.90;;;;;;5094851;28;20467;-64
2022/01/18 04:53:29;;;;;;;34.33;21.43;;;4.80;99.90;;;;;;5094653;28;20430;-66
2022/01/18 04:55:57;;;;;;;28.63;19.90;;;4.80;99.90;;;;;;5095006;28;20443;-64
2022/01/18 04:58:25;;;;;;;33.47;20.80;;;4.70;99.90;;;;;;5095107;28;20545;-65
2022/01/18 05:00:55;;;;;;;30.27;18.30;;;4.80;99.90;;;;;;5094709;28;20458;-64
2022/01/18 05:03:22;;;;;;;30.43;19.90;;;4.80;99.90;;;;;;5094853;28;20449;-64
2022/01/18 05:05:52;;;;;;;27.40;19.87;;;4.80;99.90;;;;;;5094939;28;20796;-65
2022/01/18 05:08:19;;;;;;;29.87;19.43;;;4.90;99.90;;;;;;5094741;28;20483;-65
2022/01/18 05:10:51;;;;;;;29.27;20.83;;;4.90;99.90;;;;;;5093778;28;21057;-65
2022/01/18 05:13:33;;;;;;;29.03;19.80;;;4.90;99.90;;;;;;5095294;28;20461;-65
2022/01/18 05:16:18;;;;;;;29.70;20.07;;;4.90;99.90;;;;;;5095260;28;20435;-65
2022/01/18 05:22:57;;;;;;;28.30;19.50;;;4.80;99.90;;;;;;5083950;28;20462;-65
2022/01/18 05:24:27;;;;;;;30.60;20.53;;;4.90;99.90;;;;;;5094990;28;20462;-64
2022/01/18 05:26:54;;;;;;;28.07;20.37;;;4.90;99.90;;;;;;5095705;28;20462;-64
2022/01/18 05:29:22;;;;;;;26.97;19.47;;;4.90;99.90;;;;;;5095113;28;20908;-64
2022/01/18 05:31:50;;;;;;;24.47;18.07;;;4.90;99.90;;;;;;5095627;28;20964;-64
2022/01/18 05:34:18;;;;;;;29.70;20.37;;;4.90;99.90;;;;;;5094615;28;20443;-69
2022/01/18 05:36:45;;;;;;;28.57;19.27;;;4.90;99.90;;;;;;5091200;28;20489;-64
2022/01/18 05:39:13;;;;;;;26.20;16.53;;;4.90;99.90;;;;;;5092409;28;20795;-64
2022/01/18 05:41:42;;;;;;;27.30;16.10;;;4.80;99.90;;;;;;5094525;28;20561;-64
2022/01/18 05:44:09;;;;;;;33.07;20.13;;;4.80;99.90;;;;;;5095587;28;20450;-65
2022/01/18 05:46:36;;;;;;;30.40;20.23;;;4.90;99.90;;;;;;5095963;28;20431;-65
2022/01/18 05:49:04;;;;;;;29.60;19.50;;;4.90;99.90;;;;;;5094806;28;20804;-64
2022/01/18 05:51:32;;;;;;;28.80;19.30;;;4.90;99.90;;;;;;5094793;28;20516;-64
2022/01/18 05:53:59;;;;;;;27.63;18.57;;;4.80;99.90;;;;;;5094749;28;20438;-65
2022/01/18 05:56:26;;;;;;;30.67;20.77;;;4.80;99.90;;;;;;5088565;28;20482;-64
2022/01/18 05:58:55;;;;;;;28.80;21.20;;;4.80;99.90;;;;;;5088279;28;20445;-64
2022/01/18 06:01:27;;;;;;;28.80;18.97;;;4.80;99.90;;;;;;5102384;28;20477;-64
2022/01/18 06:04:08;;;;;;;27.30;19.17;;;4.80;99.90;;;;;;5101965;28;20423;-62
2022/01/18 06:06:51;;;;;;;29.10;19.50;;;4.80;99.90;;;;;;5092512;28;20441;-65
2022/01/18 06:09:19;;;;;;;25.40;17.30;;;4.80;99.90;;;;;;5095205;28;21381;-65
2022/01/18 06:11:46;;;;;;;27.47;18.30;;;4.80;99.90;;;;;;5102007;28;20457;-70
2022/01/18 06:14:13;;;;;;;30.17;20.67;;;4.80;99.90;;;;;;5087288;28;21098;-69
2022/01/18 06:16:40;;;;;;;27.80;17.60;;;4.70;99.90;;;;;;5086236;28;20505;-65
2022/01/18 06:19:07;;;;;;;24.40;18.20;;;4.70;99.90;;;;;;5093037;28;20453;-63
2022/01/18 06:21:34;;;;;;;31.93;21.90;;;4.60;99.90;;;;;;5099369;28;20477;-63
2022/01/18 06:24:02;;;;;;;28.80;19.87;;;4.60;99.90;;;;;;5100386;28;20453;-64
2022/01/18 06:26:29;;;;;;;35.20;21.90;;;4.60;99.90;;;;;;5099276;28;20435;-66
2022/01/18 06:28:56;;;;;;;32.40;20.33;;;4.60;99.90;;;;;;5092795;28;20818;-65
2022/01/18 06:31:24;;;;;;;29.27;21.57;;;4.60;99.90;;;;;;5091626;28;20480;-66
2022/01/18 06:33:50;;;;;;;30.87;21.07;;;4.60;99.90;;;;;;5092437;28;20457;-65
2022/01/18 06:36:17;;;;;;;35.10;21.20;;;4.50;99.90;;;;;;5092592;28;21015;-67
2022/01/18 06:38:44;;;;;;;29.27;20.00;;;4.50;99.90;;;;;;5092706;28;20549;-67
2022/01/18 06:41:12;;;;;;;34.10;21.70;;;4.50;99.90;;;;;;5092121;28;20470;-66
2022/01/18 06:43:39;;;;;;;31.00;21.27;;;4.50;99.90;;;;;;5092301;28;20442;-67
2022/01/18 06:46:06;;;;;;;31.23;22.20;;;4.50;99.90;;;;;;5091897;28;20504;-65
2022/01/18 06:48:33;;;;;;;31.30;20.37;;;4.50;99.90;;;;;;5095266;28;20974;-66
2022/01/18 06:51:00;;;;;;;34.40;21.03;;;4.50;99.90;;;;;;5096909;28;20477;-66
2022/01/18 06:53:31;;;;;;;35.30;21.67;;;4.50;99.90;;;;;;5097127;28;20454;-66
2022/01/18 06:55:58;;;;;;;34.57;23.43;;;4.50;99.90;;;;;;5098044;28;20453;-64
2022/01/18 06:58:26;;;;;;;33.67;22.03;;;4.40;99.90;;;;;;5097549;28;20533;-66
2022/01/18 07:00:53;;;;;;;31.57;22.30;;;4.40;99.90;;;;;;5097517;28;20462;-67
2022/01/18 07:03:20;;;;;;;34.97;22.97;;;4.40;99.90;;;;;;5097950;28;20446;-67
2022/01/18 07:05:47;;;;;;;31.13;20.07;;;4.40;99.90;;;;;;5095992;28;20459;-64
2022/01/18 07:08:14;;;;;;;34.17;22.70;;;4.40;99.90;;;;;;5094287;28;20450;-66
2022/01/18 07:10:41;;;;;;;34.87;23.87;;;4.40;99.90;;;;;;5094505;28;20469;-66
2022/01/18 07:13:08;;;;;;;30.33;20.93;;;4.50;99.90;;;;;;5094899;28;20944;-64
2022/01/18 07:15:37;;;;;;;34.80;21.13;;;4.50;99.90;;;;;;5094696;28;20454;-64
2022/01/18 07:18:05;;;;;;;32.53;22.00;;;4.40;99.90;;;;;;5094285;28;20486;-64
2022/01/18 07:20:32;;;;;;;31.03;21.50;;;4.40;99.90;;;;;;5093988;28;20830;-63
2022/01/18 07:22:59;;;;;;;30.37;20.87;;;4.40;99.90;;;;;;5094928;28;20449;-63
2022/01/18 07:25:26;;;;;;;31.07;20.90;;;4.50;99.90;;;;;;5094868;28;20468;-62
2022/01/18 07:27:53;;;;;;;35.80;21.20;;;4.50;99.90;;;;;;5094365;28;20479;-65
2022/01/18 07:30:20;;;;;;;36.23;21.17;;;4.60;99.90;;;;;;5094112;28;20466;-65
2022/01/18 07:32:48;;;;;;;32.30;22.43;;;4.50;99.90;;;;;;5094157;28;20443;-64
2022/01/18 07:35:15;;;;;;;35.40;22.07;;;4.60;99.90;;;;;;5093866;28;20473;-66
2022/01/18 07:37:43;;;;;;;30.93;20.80;;;4.50;99.90;;;;;;5093651;28;21225;-65
2022/01/18 07:40:10;;;;;;;33.50;21.17;;;4.50;99.90;;;;;;5093515;28;20539;-64
2022/01/18 07:42:37;;;;;;;30.67;21.23;;;4.60;99.90;;;;;;5094103;28;20878;-64
2022/01/18 07:45:05;;;;;;;36.13;23.50;;;4.60;99.90;;;;;;5093872;28;20446;-65
2022/01/18 07:47:32;;;;;;;39.60;24.97;;;4.60;99.90;;;;;;5094165;28;20809;-63
2022/01/18 07:50:00;;;;;;;38.70;23.33;;;4.60;99.90;;;;;;5093808;28;20876;-65
2022/01/18 07:52:27;;;;;;;38.30;22.90;;;4.60;99.90;;;;;;5093508;28;20819;-64
2022/01/18 07:54:54;;;;;;;37.97;24.67;;;4.50;99.90;;;;;;5092941;28;20455;-64
2022/01/18 07:57:21;;;;;;;37.40;22.40;;;4.50;99.90;;;;;;5093082;28;20482;-63
2022/01/18 07:59:48;;;;;;;42.87;25.53;;;4.40;99.90;;;;;;5091909;28;20461;-65
2022/01/18 08:02:15;;;;;;;37.13;25.00;;;4.40;99.90;;;;;;5093022;28;20466;-64
2022/01/18 08:04:42;;;;;;;45.33;26.10;;;4.40;99.90;;;;;;5092686;28;20526;-63
2022/01/18 08:07:10;;;;;;;42.77;26.60;;;4.40;99.90;;;;;;5093020;28;20443;-65
2022/01/18 08:09:37;;;;;;;41.17;26.67;;;4.40;99.90;;;;;;5092138;28;20545;-65
2022/01/18 08:12:04;;;;;;;44.43;25.37;;;4.40;99.90;;;;;;5092592;28;20967;-65
2022/01/18 08:14:32;;;;;;;47.17;26.10;;;4.60;99.90;;;;;;5092382;28;20446;-64
2022/01/18 08:17:04;;;;;;;44.60;26.40;;;4.60;99.90;;;;;;5092300;28;20458;-65
2022/01/18 08:19:33;;;;;;;46.30;26.23;;;4.60;99.90;;;;;;5092633;28;20446;-64
2022/01/18 08:22:00;;;;;;;41.67;26.67;;;4.70;99.90;;;;;;5092274;28;20553;-65
2022/01/18 08:24:29;;;;;;;39.67;24.70;;;4.80;99.90;;;;;;5092277;28;20534;-64
2022/01/18 08:26:55;;;;;;;33.47;25.10;;;4.80;99.90;;;;;;5094428;28;20457;-64
2022/01/18 08:29:23;;;;;;;41.43;25.93;;;5.00;99.90;;;;;;5092666;28;20457;-64
2022/01/18 08:31:50;;;;;;;36.73;24.87;;;5.20;99.90;;;;;;5092475;28;20478;-65
2022/01/18 08:34:17;;;;;;;33.83;23.30;;;5.50;99.90;;;;;;5092735;28;20446;-65
2022/01/18 08:36:44;;;;;;;34.03;22.27;;;5.70;99.90;;;;;;5091839;28;20457;-65
2022/01/18 08:39:11;;;;;;;34.93;22.97;;;5.80;99.90;;;;;;5092480;28;20482;-64
2022/01/18 08:41:39;;;;;;;34.83;22.33;;;5.70;99.90;;;;;;5092187;28;20528;-66
2022/01/18 08:44:07;;;;;;;40.40;22.10;;;5.80;99.90;;;;;;5092482;28;20519;-65
2022/01/18 08:46:34;;;;;;;31.87;19.80;;;5.80;99.90;;;;;;5092395;28;20553;-64
2022/01/18 08:49:01;;;;;;;33.40;22.17;;;5.70;99.90;;;;;;5091768;28;20929;-64
2022/01/18 08:51:28;;;;;;;29.50;20.03;;;5.70;99.90;;;;;;5092358;28;20482;-64
2022/01/18 08:53:55;;;;;;;30.53;20.30;;;5.80;99.90;;;;;;5091952;28;20447;-65
2022/01/18 08:56:22;;;;;;;32.97;23.07;;;5.90;99.90;;;;;;5091966;28;20457;-65
2022/01/18 08:58:51;;;;;;;34.53;22.37;;;6.20;99.90;;;;;;5091033;28;20488;-64
2022/01/18 09:01:18;;;;;;;33.10;21.03;;;6.40;99.90;;;;;;5090836;28;20466;-64
2022/01/18 09:03:46;;;;;;;31.70;22.03;;;6.40;99.90;;;;;;5091076;28;20443;-64
2022/01/18 09:06:15;;;;;;;31.03;20.30;;;6.20;99.90;;;;;;5091255;28;20453;-64
2022/01/18 09:08:43;;;;;;;31.97;20.20;;;6.20;99.90;;;;;;5090992;28;20446;-65
2022/01/18 09:11:11;;;;;;;31.13;22.13;;;6.20;99.90;;;;;;5089791;28;20474;-64
2022/01/18 09:13:39;;;;;;;34.93;22.20;;;6.20;99.90;;;;;;5091393;28;20455;-64
2022/01/18 09:16:09;;;;;;;34.13;20.73;;;6.20;99.90;;;;;;5091467;28;20451;-64
2022/01/18 09:18:37;;;;;;;31.57;19.47;;;6.40;99.90;;;;;;5091225;28;20548;-65
2022/01/18 09:21:04;;;;;;;32.20;20.03;;;6.50;99.90;;;;;;5091027;28;20473;-64
2022/01/18 09:23:32;;;;;;;32.00;20.60;;;6.50;99.90;;;;;;5091910;28;20443;-63
2022/01/18 09:25:59;;;;;;;28.53;20.33;;;6.70;99.90;;;;;;5091116;28;20486;-65
2022/01/18 09:28:26;;;;;;;29.33;19.30;;;6.80;99.90;;;;;;5091690;28;20820;-64
2022/01/18 09:30:53;;;;;;;28.80;17.90;;;6.90;99.90;;;;;;5091328;28;20566;-64
2022/01/18 09:33:21;;;;;;;32.30;18.90;;;7.10;99.90;;;;;;5092168;28;20519;-66
2022/01/18 09:35:48;;;;;;;27.80;19.53;;;7.10;99.90;;;;;;5090384;28;20457;-66
2022/01/18 09:38:15;;;;;;;29.10;17.50;;;6.90;99.90;;;;;;5090624;28;20491;-65
2022/01/18 09:40:44;;;;;;;25.70;17.00;;;6.70;99.90;;;;;;5090452;28;20471;-65
2022/01/18 09:43:14;;;;;;;24.37;17.27;;;6.60;99.90;;;;;;5090415;28;20486;-65
2022/01/18 09:45:42;;;;;;;24.90;16.90;;;6.20;99.90;;;;;;5090904;28;20462;-66
2022/01/18 09:48:10;;;;;;;26.17;15.30;;;5.80;99.90;;;;;;5090908;28;20442;-64
2022/01/18 09:50:40;;;;;;;28.07;17.80;;;5.50;99.90;;;;;;5090438;28;20555;-65
2022/01/18 09:53:10;;;;;;;26.33;17.80;;;5.40;99.90;;;;;;5091139;28;20454;-64
2022/01/18 09:55:38;;;;;;;28.57;17.17;;;5.40;99.90;;;;;;5091540;28;20454;-65
2022/01/18 09:58:07;;;;;;;30.90;17.00;;;5.50;99.90;;;;;;5091065;28;20486;-65
2022/01/18 10:00:37;;;;;;;25.83;16.73;;;5.80;99.90;;;;;;5091103;28;20449;-65
2022/01/18 10:03:09;;;;;;;23.13;15.37;;;6.30;99.90;;;;;;5091088;28;20940;-66
2022/01/18 10:05:38;;;;;;;20.47;13.97;;;6.70;99.90;;;;;;5090387;28;20457;-65
2022/01/18 10:08:09;;;;;;;26.97;14.33;;;6.60;99.90;;;;;;5090156;28;20446;-64
2022/01/18 10:10:44;;;;;;;23.57;13.80;;;6.40;99.90;;;;;;5089708;28;20457;-66
2022/01/18 10:13:17;;;;;;;23.07;13.87;;;6.20;99.90;;;;;;5090122;28;20951;-65
2022/01/18 10:16:06;;;;;;;24.40;15.77;;;6.00;99.90;;;;;;5090447;28;20446;-64
2022/01/18 10:18:37;;;;;;;22.90;14.77;;;5.70;99.90;;;;;;5089816;28;20487;-65
2022/01/18 10:21:07;;;;;;;23.33;14.83;;;5.60;99.90;;;;;;5089232;28;21047;-66
2022/01/18 10:23:36;;;;;;;24.27;13.90;;;5.70;99.90;;;;;;5089653;28;20438;-66
2022/01/18 10:26:17;;;;;;;24.07;14.37;;;5.80;99.90;;;;;;5090213;28;20453;-66
2022/01/18 10:28:44;;;;;;;25.30;15.10;;;6.10;99.90;;;;;;5089755;28;20530;-65
2022/01/18 10:31:25;;;;;;;28.30;16.70;;;6.60;99.90;;;;;;5089761;28;20996;-66
2022/01/18 10:34:12;;;;;;;22.97;14.70;;;6.90;99.90;;;;;;5090347;28;20519;-66
2022/01/18 10:36:53;;;;;;;20.13;13.50;;;7.30;99.90;;;;;;5089729;28;20473;-65
2022/01/18 10:39:25;;;;;;;19.53;13.33;;;7.40;99.90;;;;;;5089446;28;20482;-65
2022/01/18 10:41:52;;;;;;;23.97;14.47;;;7.30;99.90;;;;;;5089933;28;20466;-65
2022/01/18 10:44:20;;;;;;;25.13;14.60;;;7.60;99.90;;;;;;5089691;28;20944;-66
2022/01/18 10:46:48;;;;;;;18.50;14.13;;;8.00;99.90;;;;;;5089846;28;20499;-65
2022/01/18 10:49:28;;;;;;;19.40;13.67;;;8.20;99.90;;;;;;5089625;28;20443;-65
2022/01/18 10:52:02;;;;;;;21.70;12.83;;;8.70;99.90;;;;;;5089940;28;20477;-64
2022/01/18 10:54:43;;;;;;;17.23;13.13;;;9.10;99.90;;;;;;5089865;28;20445;-65
2022/01/18 10:57:12;;;;;;;19.90;13.40;;;9.30;99.90;;;;;;5089974;28;20484;-65
2022/01/18 10:59:40;;;;;;;20.10;13.87;;;8.90;99.90;;;;;;5089677;28;20479;-65
2022/01/18 11:02:16;;;;;;;19.70;13.00;;;8.00;99.90;;;;;;5090315;28;20470;-64
2022/01/18 11:04:45;;;;;;;22.30;14.47;;;7.60;99.90;;;;;;5089925;28;20489;-65
2022/01/18 11:07:14;;;;;;;19.57;14.20;;;7.10;99.90;;;;;;5090037;28;20504;-65
2022/01/18 11:09:42;;;;;;;20.60;14.53;;;6.90;99.90;;;;;;5089708;28;20450;-65
2022/01/18 11:12:10;;;;;;;17.50;11.50;;;6.80;99.90;;;;;;5090005;28;20566;-65
2022/01/18 11:14:40;;;;;;;20.30;11.57;;;6.50;99.90;;;;;;5090315;28;20450;-65
2022/01/18 11:17:08;;;;;;;23.63;13.20;;;6.30;99.90;;;;;;5089777;28;20450;-65
2022/01/18 11:19:38;;;;;;;18.30;11.77;;;6.30;99.90;;;;;;5089703;28;20482;-65
2022/01/18 11:22:10;;;;;;;18.47;12.53;;;6.20;99.90;;;;;;5089809;28;20524;-65
2022/01/18 11:24:41;;;;;;;16.90;11.70;;;6.30;99.90;;;;;;5090001;28;20447;-65
2022/01/18 11:27:12;;;;;;;23.63;11.50;;;6.30;99.90;;;;;;5089561;28;20457;-65
2022/01/18 11:29:39;;;;;;;20.20;11.20;;;6.20;99.90;;;;;;5089487;28;20998;-66
2022/01/18 11:32:07;;;;;;;19.57;11.60;;;6.10;99.90;;;;;;5089383;28;20986;-65
2022/01/18 11:34:45;;;;;;;19.17;12.73;;;6.00;99.90;;;;;;5090734;28;20441;-65
2022/01/18 11:37:18;;;;;;;19.77;12.97;;;6.10;99.90;;;;;;5093957;28;20890;-64
2022/01/18 11:39:46;;;;;;;16.87;11.70;;;6.10;99.90;;;;;;5092934;28;20481;-65
2022/01/18 11:42:14;;;;;;;20.43;10.97;;;6.30;99.90;;;;;;5093020;28;20473;-66
2022/01/18 11:44:41;;;;;;;15.60;10.40;;;6.50;99.90;;;;;;5092893;28;20469;-65
2022/01/18 11:47:09;;;;;;;13.90;9.30;;;6.80;99.90;;;;;;5093081;28;20522;-65
2022/01/18 11:49:45;;;;;;;11.90;7.73;;;7.20;99.90;;;;;;5092812;28;20465;-65
2022/01/18 11:52:33;;;;;;;9.23;6.07;;;7.60;99.90;;;;;;5092502;28;20999;-67
2022/01/18 11:55:03;;;;;;;9.97;6.00;;;7.80;99.90;;;;;;5093589;28;20443;-66
2022/01/18 11:57:37;;;;;;;10.70;6.43;;;7.70;99.90;;;;;;5092788;28;20525;-65
2022/01/18 12:00:24;;;;;;;9.10;6.03;;;7.90;99.90;;;;;;5092080;28;20478;-65
2022/01/18 12:02:55;;;;;;;8.60;7.10;;;7.50;99.90;;;;;;5092628;28;20535;-65
2022/01/18 12:05:25;;;;;;;9.27;5.90;;;7.30;99.90;;;;;;5093310;28;20458;-65
2022/01/18 12:08:01;;;;;;;8.17;5.03;;;7.40;99.90;;;;;;5094076;28;20611;-67
2022/01/18 12:10:49;;;;;;;10.07;6.60;;;7.40;99.90;;;;;;5094061;28;20519;-65
2022/01/18 12:13:38;;;;;;;9.40;6.10;;;7.40;99.90;;;;;;5094310;28;20435;-66
2022/01/18 12:16:10;;;;;;;8.23;4.90;;;7.50;99.90;;;;;;5094587;28;20438;-66
2022/01/18 12:18:51;;;;;;;11.70;6.70;;;7.60;99.90;;;;;;5094206;28;20482;-65
2022/01/18 12:21:22;;;;;;;8.63;5.63;;;7.70;99.90;;;;;;5093921;28;20494;-66
2022/01/18 12:23:49;;;;;;;6.47;4.60;;;7.70;99.90;;;;;;5094119;28;20446;-65
2022/01/18 12:26:38;;;;;;;9.03;4.83;;;7.60;99.90;;;;;;5093692;28;20458;-64
2022/01/18 12:29:35;;;;;;;6.53;4.63;;;7.50;99.90;;;;;;5093908;28;20457;-67
2022/01/18 12:35:02;;;;;;;7.70;5.13;;;7.70;99.90;;;;;;5093591;28;20947;-64
2022/01/18 12:37:48;;;;;;;6.60;4.33;;;7.90;99.90;;;;;;5093677;28;20438;-65
2022/01/18 12:40:31;;;;;;;6.47;4.10;;;8.20;99.90;;;;;;5093533;28;20569;-65
2022/01/18 12:45:53;;;;;;;6.67;4.50;;;8.40;99.90;;;;;;5093978;28;20565;-65
2022/01/18 12:48:20;;;;;;;8.83;4.20;;;8.50;99.90;;;;;;5093215;28;20533;-66
2022/01/18 12:50:51;;;;;;;6.70;3.80;;;8.50;99.90;;;;;;5092677;28;20891;-64
2022/01/18 12:53:21;;;;;;;7.40;4.27;;;8.50;99.90;;;;;;5092425;28;20499;-66
2022/01/18 12:55:50;;;;;;;6.90;3.80;;;8.40;99.90;;;;;;5093250;28;21070;-65
2022/01/18 12:58:20;;;;;;;6.53;4.00;;;8.40;99.90;;;;;;5092629;28;20442;-66
2022/01/18 13:00:48;;;;;;;7.00;4.00;;;8.20;99.90;;;;;;5092073;28;20470;-65
2022/01/18 13:03:20;;;;;;;7.90;3.70;;;8.20;99.90;;;;;;5092846;28;20461;-66
2022/01/18 13:05:48;;;;;;;8.57;4.80;;;8.10;99.90;;;;;;5092750;28;20825;-65
2022/01/18 13:08:18;;;;;;;6.90;4.30;;;8.10;99.90;;;;;;5092748;28;21016;-65
2022/01/18 13:10:47;;;;;;;6.83;4.17;;;8.20;99.90;;;;;;5092569;28;20477;-66
2022/01/18 13:13:15;;;;;;;6.27;4.27;;;8.20;99.90;;;;;;5093077;28;20538;-62
2022/01/18 13:26:50;;;;;;;8.03;3.50;;;8.60;99.90;;;;;;5059270;28;20426;-65
2022/01/18 13:29:20;;;;;;;6.03;4.17;;;8.70;99.90;;;;;;5093089;28;20529;-65
2022/01/18 13:32:00;;;;;;;6.20;4.10;;;9.00;99.90;;;;;;5093068;28;20486;-65
2022/01/18 13:34:30;;;;;;;6.20;3.87;;;9.20;99.90;;;;;;5093284;28;20513;-65
2022/01/18 13:36:58;;;;;;;6.30;3.67;;;9.30;99.90;;;;;;5093145;28;20450;-67
2022/01/18 13:39:28;;;;;;;6.63;3.73;;;9.50;99.90;;;;;;5092614;28;20569;-65
2022/01/18 13:41:58;;;;;;;5.50;4.37;;;9.60;99.90;;;;;;5092467;28;20480;-65
2022/01/18 13:44:26;;;;;;;5.37;3.63;;;9.90;99.90;;;;;;5092988;28;20454;-65
2022/01/18 13:46:54;;;;;;;5.27;3.30;;;9.90;99.90;;;;;;5092988;28;20451;-65
2022/01/18 13:49:24;;;;;;;3.87;2.80;;;9.70;99.90;;;;;;5092688;28;20526;-65
2022/01/18 13:52:02;;;;;;;4.50;2.70;;;9.30;99.90;;;;;;5092651;28;20471;-65
2022/01/18 13:54:43;;;;;;;5.80;2.80;;;8.60;99.90;;;;;;5092625;28;20518;-65